sensor_id;sensor_type;location;lat;lon;timestamp;P1;durP1;ratioP1;P2;durP2;ratioP2
47403;SDS011;33157;51.508;4.288;2022-11-20T00:01:37;17.05;;;10.15;;
47403;SDS011;33157;51.508;4.288;2022-11-20T00:06:38;14.73;;;10.32;;
47403;SDS011;33157;51.508;4.288;2022-11-20T00:11:38;17.08;;;10.68;;
47403;SDS011;33157;51.508;4.288;2022-11-20T00:16:39;16.42;;;10.30;;
47403;SDS011;33157;51.508;4.288;2022-11-20T00:21:40;14.35;;;9.63;;
47403;SDS011;33157;51.508;4.288;2022-11-20T00:26:40;17.90;;;10.77;;
47403;SDS011;33157;51.508;4.288;2022-11-20T00:31:41;14.15;;;9.88;;
47403;SDS011;33157;51.508;4.288;2022-11-20T00:36:41;13.80;;;9.85;;
47403;SDS011;33157;51.508;4.288;2022-11-20T00:41:42;16.55;;;10.93;;
47403;SDS011;33157;51.508;4.288;2022-11-20T00:46:43;14.57;;;9.73;;
47403;SDS011;33157;51.508;4.288;2022-11-20T00:51:43;14.82;;;9.70;;
47403;SDS011;33157;51.508;4.288;2022-11-20T00:56:44;16.15;;;10.90;;
47403;SDS011;33157;51.508;4.288;2022-11-20T01:01:44;15.93;;;10.45;;
47403;SDS011;33157;51.508;4.288;2022-11-20T01:06:45;15.30;;;10.05;;
47403;SDS011;33157;51.508;4.288;2022-11-20T01:11:45;13.75;;;10.05;;
47403;SDS011;33157;51.508;4.288;2022-11-20T01:16:48;14.63;;;9.93;;
47403;SDS011;33157;51.508;4.288;2022-11-20T01:21:51;15.82;;;10.68;;
47403;SDS011;33157;51.508;4.288;2022-11-20T01:26:52;15.85;;;10.20;;
47403;SDS011;33157;51.508;4.288;2022-11-20T01:31:53;15.73;;;10.65;;
47403;SDS011;33157;51.508;4.288;2022-11-20T01:36:54;18.08;;;9.93;;
47403;SDS011;33157;51.508;4.288;2022-11-20T01:41:54;18.00;;;9.57;;
47403;SDS011;33157;51.508;4.288;2022-11-20T01:47:16;17.40;;;10.38;;
47403;SDS011;33157;51.508;4.288;2022-11-20T01:52:22;14.85;;;9.90;;
47403;SDS011;33157;51.508;4.288;2022-11-20T01:57:28;15.98;;;10.25;;
47403;SDS011;33157;51.508;4.288;2022-11-20T02:02:29;15.13;;;10.40;;
47403;SDS011;33157;51.508;4.288;2022-11-20T02:07:30;14.73;;;10.02;;
47403;SDS011;33157;51.508;4.288;2022-11-20T02:12:31;16.13;;;10.18;;
47403;SDS011;33157;51.508;4.288;2022-11-20T02:17:50;15.40;;;9.75;;
47403;SDS011;33157;51.508;4.288;2022-11-20T02:22:53;16.30;;;9.02;;
47403;SDS011;33157;51.508;4.288;2022-11-20T02:27:56;14.65;;;9.68;;
47403;SDS011;33157;51.508;4.288;2022-11-20T02:32:57;15.02;;;9.45;;
47403;SDS011;33157;51.508;4.288;2022-11-20T02:37:59;15.18;;;10.00;;
47403;SDS011;33157;51.508;4.288;2022-11-20T02:43:01;12.90;;;9.00;;
47403;SDS011;33157;51.508;4.288;2022-11-20T02:48:02;16.05;;;9.57;;
47403;SDS011;33157;51.508;4.288;2022-11-20T02:53:02;15.88;;;10.23;;
47403;SDS011;33157;51.508;4.288;2022-11-20T02:58:03;14.93;;;9.80;;
47403;SDS011;33157;51.508;4.288;2022-11-20T03:03:03;14.45;;;9.90;;
47403;SDS011;33157;51.508;4.288;2022-11-20T03:08:04;14.05;;;9.85;;
47403;SDS011;33157;51.508;4.288;2022-11-20T03:13:04;16.60;;;10.50;;
47403;SDS011;33157;51.508;4.288;2022-11-20T03:18:05;15.80;;;9.75;;
47403;SDS011;33157;51.508;4.288;2022-11-20T03:23:08;14.32;;;10.38;;
47403;SDS011;33157;51.508;4.288;2022-11-20T03:28:09;16.55;;;10.25;;
47403;SDS011;33157;51.508;4.288;2022-11-20T03:33:09;16.90;;;10.40;;
47403;SDS011;33157;51.508;4.288;2022-11-20T03:38:12;16.30;;;11.05;;
47403;SDS011;33157;51.508;4.288;2022-11-20T03:43:13;16.90;;;10.32;;
47403;SDS011;33157;51.508;4.288;2022-11-20T03:48:14;19.75;;;11.20;;
47403;SDS011;33157;51.508;4.288;2022-11-20T03:53:15;16.77;;;9.88;;
47403;SDS011;33157;51.508;4.288;2022-11-20T03:58:16;16.97;;;11.07;;
47403;SDS011;33157;51.508;4.288;2022-11-20T04:03:16;16.88;;;10.77;;
47403;SDS011;33157;51.508;4.288;2022-11-20T04:08:16;17.52;;;10.60;;
47403;SDS011;33157;51.508;4.288;2022-11-20T04:13:17;16.08;;;10.13;;
47403;SDS011;33157;51.508;4.288;2022-11-20T04:18:17;15.45;;;10.60;;
47403;SDS011;33157;51.508;4.288;2022-11-20T04:23:18;16.38;;;11.20;;
47403;SDS011;33157;51.508;4.288;2022-11-20T04:28:19;15.43;;;10.90;;
47403;SDS011;33157;51.508;4.288;2022-11-20T04:33:19;16.35;;;11.05;;
47403;SDS011;33157;51.508;4.288;2022-11-20T04:38:20;17.83;;;11.82;;
47403;SDS011;33157;51.508;4.288;2022-11-20T04:43:20;16.95;;;11.13;;
47403;SDS011;33157;51.508;4.288;2022-11-20T04:48:21;17.45;;;12.02;;
47403;SDS011;33157;51.508;4.288;2022-11-20T04:53:22;17.23;;;11.63;;
47403;SDS011;33157;51.508;4.288;2022-11-20T04:58:23;18.17;;;11.48;;
47403;SDS011;33157;51.508;4.288;2022-11-20T05:03:24;20.08;;;12.85;;
47403;SDS011;33157;51.508;4.288;2022-11-20T05:08:24;20.02;;;12.55;;
47403;SDS011;33157;51.508;4.288;2022-11-20T05:13:25;17.83;;;13.18;;
47403;SDS011;33157;51.508;4.288;2022-11-20T05:18:25;18.25;;;12.25;;
47403;SDS011;33157;51.508;4.288;2022-11-20T05:23:26;17.48;;;12.73;;
47403;SDS011;33157;51.508;4.288;2022-11-20T05:28:29;17.48;;;12.02;;
47403;SDS011;33157;51.508;4.288;2022-11-20T05:33:30;19.40;;;13.23;;
47403;SDS011;33157;51.508;4.288;2022-11-20T05:38:31;22.33;;;13.98;;
47403;SDS011;33157;51.508;4.288;2022-11-20T05:43:32;20.35;;;13.00;;
47403;SDS011;33157;51.508;4.288;2022-11-20T05:48:35;19.52;;;13.23;;
47403;SDS011;33157;51.508;4.288;2022-11-20T05:53:36;21.52;;;14.23;;
47403;SDS011;33157;51.508;4.288;2022-11-20T05:58:37;23.85;;;14.77;;
47403;SDS011;33157;51.508;4.288;2022-11-20T06:03:38;25.00;;;14.38;;
47403;SDS011;33157;51.508;4.288;2022-11-20T06:08:39;24.13;;;14.87;;
47403;SDS011;33157;51.508;4.288;2022-11-20T06:13:40;26.95;;;15.38;;
47403;SDS011;33157;51.508;4.288;2022-11-20T06:18:41;23.17;;;15.68;;
47403;SDS011;33157;51.508;4.288;2022-11-20T06:23:42;23.25;;;15.00;;
47403;SDS011;33157;51.508;4.288;2022-11-20T06:28:43;23.80;;;14.90;;
47403;SDS011;33157;51.508;4.288;2022-11-20T06:33:43;25.00;;;15.23;;
47403;SDS011;33157;51.508;4.288;2022-11-20T06:38:44;24.13;;;14.93;;
47403;SDS011;33157;51.508;4.288;2022-11-20T06:43:45;28.67;;;16.08;;
47403;SDS011;33157;51.508;4.288;2022-11-20T06:48:46;26.50;;;17.30;;
47403;SDS011;33157;51.508;4.288;2022-11-20T06:53:47;30.42;;;17.42;;
47403;SDS011;33157;51.508;4.288;2022-11-20T06:58:48;27.45;;;17.20;;
47403;SDS011;33157;51.508;4.288;2022-11-20T07:03:49;32.45;;;18.73;;
47403;SDS011;33157;51.508;4.288;2022-11-20T07:08:51;39.63;;;22.42;;
47403;SDS011;33157;51.508;4.288;2022-11-20T07:13:52;43.72;;;23.48;;
47403;SDS011;33157;51.508;4.288;2022-11-20T07:18:53;37.13;;;20.80;;
47403;SDS011;33157;51.508;4.288;2022-11-20T07:23:54;41.55;;;21.80;;
47403;SDS011;33157;51.508;4.288;2022-11-20T07:28:55;44.50;;;23.70;;
47403;SDS011;33157;51.508;4.288;2022-11-20T07:33:55;47.58;;;24.35;;
47403;SDS011;33157;51.508;4.288;2022-11-20T07:38:56;47.53;;;26.02;;
47403;SDS011;33157;51.508;4.288;2022-11-20T07:43:56;51.40;;;24.92;;
47403;SDS011;33157;51.508;4.288;2022-11-20T07:48:57;45.28;;;26.13;;
47403;SDS011;33157;51.508;4.288;2022-11-20T07:53:58;41.80;;;24.10;;
47403;SDS011;33157;51.508;4.288;2022-11-20T07:58:58;43.40;;;25.25;;
47403;SDS011;33157;51.508;4.288;2022-11-20T08:03:59;53.80;;;26.67;;
47403;SDS011;33157;51.508;4.288;2022-11-20T08:08:59;56.20;;;29.42;;
47403;SDS011;33157;51.508;4.288;2022-11-20T08:14:00;56.20;;;36.88;;
47403;SDS011;33157;51.508;4.288;2022-11-20T08:19:16;54.92;;;35.90;;
47403;SDS011;33157;51.508;4.288;2022-11-20T08:24:18;44.78;;;27.85;;
47403;SDS011;33157;51.508;4.288;2022-11-20T08:29:18;44.22;;;24.83;;
47403;SDS011;33157;51.508;4.288;2022-11-20T08:34:19;42.58;;;25.40;;
47403;SDS011;33157;51.508;4.288;2022-11-20T08:39:20;50.55;;;26.38;;
47403;SDS011;33157;51.508;4.288;2022-11-20T08:44:20;46.67;;;25.90;;
47403;SDS011;33157;51.508;4.288;2022-11-20T08:49:21;49.17;;;28.02;;
47403;SDS011;33157;51.508;4.288;2022-11-20T08:54:22;51.25;;;26.85;;
47403;SDS011;33157;51.508;4.288;2022-11-20T08:59:23;48.33;;;28.10;;
47403;SDS011;33157;51.508;4.288;2022-11-20T09:04:23;52.63;;;27.70;;
47403;SDS011;33157;51.508;4.288;2022-11-20T09:09:24;49.28;;;28.15;;
47403;SDS011;33157;51.508;4.288;2022-11-20T09:14:24;46.90;;;28.27;;
47403;SDS011;33157;51.508;4.288;2022-11-20T09:19:29;51.00;;;28.52;;
47403;SDS011;33157;51.508;4.288;2022-11-20T09:24:29;53.78;;;29.23;;
47403;SDS011;33157;51.508;4.288;2022-11-20T09:29:30;51.80;;;29.58;;
47403;SDS011;33157;51.508;4.288;2022-11-20T09:34:31;50.88;;;29.27;;
47403;SDS011;33157;51.508;4.288;2022-11-20T09:39:31;55.08;;;31.15;;
47403;SDS011;33157;51.508;4.288;2022-11-20T09:50:23;57.17;;;28.30;;
47403;SDS011;33157;51.508;4.288;2022-11-20T09:55:42;53.42;;;30.02;;
47403;SDS011;33157;51.508;4.288;2022-11-20T10:00:43;54.78;;;29.30;;
47403;SDS011;33157;51.508;4.288;2022-11-20T10:05:48;51.42;;;29.02;;
47403;SDS011;33157;51.508;4.288;2022-11-20T10:32:26;52.95;;;28.83;;
47403;SDS011;33157;51.508;4.288;2022-11-20T10:37:32;57.60;;;30.67;;
47403;SDS011;33157;51.508;4.288;2022-11-20T10:42:40;56.30;;;28.75;;
47403;SDS011;33157;51.508;4.288;2022-11-20T10:47:43;59.15;;;32.72;;
47403;SDS011;33157;51.508;4.288;2022-11-20T10:52:54;58.95;;;29.92;;
47403;SDS011;33157;51.508;4.288;2022-11-20T10:58:10;51.58;;;28.08;;
47403;SDS011;33157;51.508;4.288;2022-11-20T11:03:28;57.42;;;28.63;;
47403;SDS011;33157;51.508;4.288;2022-11-20T11:08:32;57.22;;;29.13;;
47403;SDS011;33157;51.508;4.288;2022-11-20T11:13:35;66.65;;;30.80;;
47403;SDS011;33157;51.508;4.288;2022-11-20T11:18:36;67.05;;;34.88;;
47403;SDS011;33157;51.508;4.288;2022-11-20T11:23:40;160.15;;;59.05;;
47403;SDS011;33157;51.508;4.288;2022-11-20T11:28:41;61.42;;;30.15;;
47403;SDS011;33157;51.508;4.288;2022-11-20T11:33:42;61.58;;;28.58;;
47403;SDS011;33157;51.508;4.288;2022-11-20T11:38:43;67.20;;;40.83;;
47403;SDS011;33157;51.508;4.288;2022-11-20T11:49:43;62.47;;;32.72;;
47403;SDS011;33157;51.508;4.288;2022-11-20T12:00:10;63.63;;;32.10;;
47403;SDS011;33157;51.508;4.288;2022-11-20T12:05:21;55.42;;;28.17;;
47403;SDS011;33157;51.508;4.288;2022-11-20T12:15:46;50.97;;;24.88;;
47403;SDS011;33157;51.508;4.288;2022-11-20T12:21:00;53.70;;;25.15;;
47403;SDS011;33157;51.508;4.288;2022-11-20T12:26:13;51.45;;;25.35;;
47403;SDS011;33157;51.508;4.288;2022-11-20T12:48:42;58.28;;;24.30;;
47403;SDS011;33157;51.508;4.288;2022-11-20T12:54:48;55.07;;;24.83;;
47403;SDS011;33157;51.508;4.288;2022-11-20T13:05:09;59.50;;;23.65;;
47403;SDS011;33157;51.508;4.288;2022-11-20T13:21:53;60.72;;;23.48;;
47403;SDS011;33157;51.508;4.288;2022-11-20T13:27:02;59.55;;;23.92;;
47403;SDS011;33157;51.508;4.288;2022-11-20T13:32:16;52.38;;;22.48;;
47403;SDS011;33157;51.508;4.288;2022-11-20T13:37:25;55.38;;;22.48;;
47403;SDS011;33157;51.508;4.288;2022-11-20T13:42:28;47.95;;;22.27;;
47403;SDS011;33157;51.508;4.288;2022-11-20T13:47:30;50.92;;;22.65;;
47403;SDS011;33157;51.508;4.288;2022-11-20T14:08:09;19.75;;;11.68;;
47403;SDS011;33157;51.508;4.288;2022-11-20T14:13:20;14.27;;;9.38;;
47403;SDS011;33157;51.508;4.288;2022-11-20T14:18:21;10.77;;;6.13;;
47403;SDS011;33157;51.508;4.288;2022-11-20T14:23:25;7.68;;;3.80;;
47403;SDS011;33157;51.508;4.288;2022-11-20T14:28:28;11.32;;;3.42;;
47403;SDS011;33157;51.508;4.288;2022-11-20T14:33:30;7.75;;;4.05;;
47403;SDS011;33157;51.508;4.288;2022-11-20T14:43:33;7.95;;;4.07;;
47403;SDS011;33157;51.508;4.288;2022-11-20T14:48:40;7.93;;;3.42;;
47403;SDS011;33157;51.508;4.288;2022-11-20T14:53:43;5.43;;;3.60;;
47403;SDS011;33157;51.508;4.288;2022-11-20T14:58:44;6.05;;;3.65;;
47403;SDS011;33157;51.508;4.288;2022-11-20T15:04:11;6.43;;;4.03;;
47403;SDS011;33157;51.508;4.288;2022-11-20T15:09:13;6.70;;;4.20;;
47403;SDS011;33157;51.508;4.288;2022-11-20T15:14:14;8.00;;;4.82;;
47403;SDS011;33157;51.508;4.288;2022-11-20T15:19:19;9.45;;;5.75;;
47403;SDS011;33157;51.508;4.288;2022-11-20T15:24:21;5.65;;;4.90;;
47403;SDS011;33157;51.508;4.288;2022-11-20T15:29:22;7.78;;;5.55;;
47403;SDS011;33157;51.508;4.288;2022-11-20T15:34:23;8.15;;;6.47;;
47403;SDS011;33157;51.508;4.288;2022-11-20T15:39:24;12.18;;;7.60;;
47403;SDS011;33157;51.508;4.288;2022-11-20T15:44:24;11.18;;;7.65;;
47403;SDS011;33157;51.508;4.288;2022-11-20T15:49:25;15.57;;;8.02;;
47403;SDS011;33157;51.508;4.288;2022-11-20T15:54:26;14.75;;;6.82;;
47403;SDS011;33157;51.508;4.288;2022-11-20T15:59:26;12.65;;;6.80;;
47403;SDS011;33157;51.508;4.288;2022-11-20T16:04:27;14.13;;;4.70;;
47403;SDS011;33157;51.508;4.288;2022-11-20T16:09:27;16.98;;;4.00;;
47403;SDS011;33157;51.508;4.288;2022-11-20T16:14:28;16.38;;;4.13;;
47403;SDS011;33157;51.508;4.288;2022-11-20T16:19:48;16.33;;;2.75;;
47403;SDS011;33157;51.508;4.288;2022-11-20T16:24:48;17.33;;;2.70;;
47403;SDS011;33157;51.508;4.288;2022-11-20T16:29:49;19.10;;;3.40;;
47403;SDS011;33157;51.508;4.288;2022-11-20T16:34:49;15.57;;;4.57;;
47403;SDS011;33157;51.508;4.288;2022-11-20T16:39:50;16.27;;;4.90;;
47403;SDS011;33157;51.508;4.288;2022-11-20T16:44:50;31.67;;;9.10;;
47403;SDS011;33157;51.508;4.288;2022-11-20T16:49:51;10.77;;;5.10;;
47403;SDS011;33157;51.508;4.288;2022-11-20T17:05:15;15.50;;;5.53;;
47403;SDS011;33157;51.508;4.288;2022-11-20T17:10:16;18.55;;;7.00;;
47403;SDS011;33157;51.508;4.288;2022-11-20T17:15:16;13.43;;;6.32;;
47403;SDS011;33157;51.508;4.288;2022-11-20T17:20:17;20.50;;;6.50;;
47403;SDS011;33157;51.508;4.288;2022-11-20T17:25:17;22.27;;;5.63;;
47403;SDS011;33157;51.508;4.288;2022-11-20T17:30:18;13.70;;;2.78;;
47403;SDS011;33157;51.508;4.288;2022-11-20T17:35:18;26.83;;;4.47;;
47403;SDS011;33157;51.508;4.288;2022-11-20T17:40:19;26.40;;;4.35;;
47403;SDS011;33157;51.508;4.288;2022-11-20T17:45:20;24.25;;;5.07;;
47403;SDS011;33157;51.508;4.288;2022-11-20T17:50:20;23.70;;;5.20;;
47403;SDS011;33157;51.508;4.288;2022-11-20T17:55:21;27.58;;;5.68;;
47403;SDS011;33157;51.508;4.288;2022-11-20T18:00:22;18.50;;;3.55;;
47403;SDS011;33157;51.508;4.288;2022-11-20T18:05:25;18.98;;;3.42;;
47403;SDS011;33157;51.508;4.288;2022-11-20T18:10:27;17.77;;;3.50;;
47403;SDS011;33157;51.508;4.288;2022-11-20T18:15:29;17.83;;;4.13;;
47403;SDS011;33157;51.508;4.288;2022-11-20T18:20:29;18.85;;;3.72;;
47403;SDS011;33157;51.508;4.288;2022-11-20T18:25:30;26.20;;;5.13;;
47403;SDS011;33157;51.508;4.288;2022-11-20T18:30:30;26.25;;;4.40;;
47403;SDS011;33157;51.508;4.288;2022-11-20T18:35:31;21.55;;;4.03;;
47403;SDS011;33157;51.508;4.288;2022-11-20T18:40:33;18.92;;;4.30;;
47403;SDS011;33157;51.508;4.288;2022-11-20T18:45:35;16.23;;;3.20;;
47403;SDS011;33157;51.508;4.288;2022-11-20T18:50:35;22.25;;;3.83;;
47403;SDS011;33157;51.508;4.288;2022-11-20T18:55:36;21.50;;;3.97;;
47403;SDS011;33157;51.508;4.288;2022-11-20T19:00:36;20.58;;;3.88;;
47403;SDS011;33157;51.508;4.288;2022-11-20T19:05:37;19.02;;;3.25;;
47403;SDS011;33157;51.508;4.288;2022-11-20T19:10:37;25.98;;;5.22;;
47403;SDS011;33157;51.508;4.288;2022-11-20T19:15:39;18.95;;;3.67;;
47403;SDS011;33157;51.508;4.288;2022-11-20T19:20:39;16.85;;;2.97;;
47403;SDS011;33157;51.508;4.288;2022-11-20T19:25:40;15.65;;;4.18;;
47403;SDS011;33157;51.508;4.288;2022-11-20T19:30:40;22.27;;;3.85;;
47403;SDS011;33157;51.508;4.288;2022-11-20T19:35:42;18.15;;;3.08;;
47403;SDS011;33157;51.508;4.288;2022-11-20T19:40:42;14.13;;;3.03;;
47403;SDS011;33157;51.508;4.288;2022-11-20T19:45:43;20.98;;;3.72;;
47403;SDS011;33157;51.508;4.288;2022-11-20T19:50:43;15.55;;;3.55;;
47403;SDS011;33157;51.508;4.288;2022-11-20T19:55:56;15.70;;;3.50;;
47403;SDS011;33157;51.508;4.288;2022-11-20T20:01:04;20.10;;;3.63;;
47403;SDS011;33157;51.508;4.288;2022-11-20T20:06:19;16.35;;;3.10;;
47403;SDS011;33157;51.508;4.288;2022-11-20T20:11:25;17.42;;;3.22;;
47403;SDS011;33157;51.508;4.288;2022-11-20T20:16:27;14.07;;;3.17;;
47403;SDS011;33157;51.508;4.288;2022-11-20T20:21:28;22.17;;;4.45;;
47403;SDS011;33157;51.508;4.288;2022-11-20T20:26:30;17.63;;;3.00;;
47403;SDS011;33157;51.508;4.288;2022-11-20T20:31:31;20.17;;;3.07;;
47403;SDS011;33157;51.508;4.288;2022-11-20T20:36:35;18.58;;;3.38;;
47403;SDS011;33157;51.508;4.288;2022-11-20T20:41:35;31.02;;;4.93;;
47403;SDS011;33157;51.508;4.288;2022-11-20T20:46:36;22.85;;;4.47;;
47403;SDS011;33157;51.508;4.288;2022-11-20T20:51:36;16.05;;;3.20;;
47403;SDS011;33157;51.508;4.288;2022-11-20T20:56:37;26.50;;;5.72;;
47403;SDS011;33157;51.508;4.288;2022-11-20T21:01:38;19.35;;;4.30;;
47403;SDS011;33157;51.508;4.288;2022-11-20T21:06:39;18.48;;;3.15;;
47403;SDS011;33157;51.508;4.288;2022-11-20T21:11:39;16.10;;;3.60;;
47403;SDS011;33157;51.508;4.288;2022-11-20T21:16:40;20.52;;;3.30;;
47403;SDS011;33157;51.508;4.288;2022-11-20T21:21:42;20.55;;;4.43;;
47403;SDS011;33157;51.508;4.288;2022-11-20T21:26:58;20.25;;;3.45;;
47403;SDS011;33157;51.508;4.288;2022-11-20T21:32:00;21.33;;;4.00;;
47403;SDS011;33157;51.508;4.288;2022-11-20T21:37:02;18.20;;;2.67;;
47403;SDS011;33157;51.508;4.288;2022-11-20T21:42:03;25.58;;;2.88;;
47403;SDS011;33157;51.508;4.288;2022-11-20T21:47:03;19.27;;;3.55;;
47403;SDS011;33157;51.508;4.288;2022-11-20T21:52:04;19.98;;;3.22;;
47403;SDS011;33157;51.508;4.288;2022-11-20T21:57:05;11.32;;;2.42;;
47403;SDS011;33157;51.508;4.288;2022-11-20T22:02:05;19.58;;;3.88;;
47403;SDS011;33157;51.508;4.288;2022-11-20T22:07:07;23.02;;;3.38;;
47403;SDS011;33157;51.508;4.288;2022-11-20T22:12:07;15.50;;;2.95;;
47403;SDS011;33157;51.508;4.288;2022-11-20T22:17:10;14.85;;;3.00;;
47403;SDS011;33157;51.508;4.288;2022-11-20T22:22:12;12.80;;;2.72;;
47403;SDS011;33157;51.508;4.288;2022-11-20T22:27:13;17.52;;;3.25;;
47403;SDS011;33157;51.508;4.288;2022-11-20T22:32:13;18.80;;;2.92;;
47403;SDS011;33157;51.508;4.288;2022-11-20T22:37:14;18.38;;;2.88;;
47403;SDS011;33157;51.508;4.288;2022-11-20T22:42:14;14.48;;;6.07;;
47403;SDS011;33157;51.508;4.288;2022-11-20T22:47:15;6.90;;;1.58;;
47403;SDS011;33157;51.508;4.288;2022-11-20T22:52:16;7.07;;;1.20;;
47403;SDS011;33157;51.508;4.288;2022-11-20T22:57:16;11.23;;;2.05;;
47403;SDS011;33157;51.508;4.288;2022-11-20T23:02:17;12.73;;;2.28;;
47403;SDS011;33157;51.508;4.288;2022-11-20T23:07:17;8.57;;;2.75;;
47403;SDS011;33157;51.508;4.288;2022-11-20T23:12:18;6.53;;;1.30;;
47403;SDS011;33157;51.508;4.288;2022-11-20T23:17:18;11.07;;;1.83;;
47403;SDS011;33157;51.508;4.288;2022-11-20T23:22:19;9.85;;;2.65;;
47403;SDS011;33157;51.508;4.288;2022-11-20T23:27:19;12.80;;;3.50;;
47403;SDS011;33157;51.508;4.288;2022-11-20T23:32:20;11.35;;;3.53;;
47403;SDS011;33157;51.508;4.288;2022-11-20T23:37:20;11.50;;;2.70;;
47403;SDS011;33157;51.508;4.288;2022-11-20T23:42:21;20.58;;;2.95;;
47403;SDS011;33157;51.508;4.288;2022-11-20T23:47:21;15.70;;;3.28;;
47403;SDS011;33157;51.508;4.288;2022-11-20T23:52:22;18.73;;;4.18;;
47403;SDS011;33157;51.508;4.288;2022-11-20T23:57:25;18.65;;;3.17;;
